2018/02/24 19:30 VVNB 241930Z 36003KT 1400 R11R/1500N -RA BR SCT003 BKN010 17/16 Q1017 NOSIG
2018/02/24 19:30 VVDN 241930Z 22002KT 7000 FEW013 BKN060 22/20 Q1015 NOSIG
2018/02/24 19:30 VVTS 241930Z VRB03KT 9999 FEW020 25/22 Q1011 NOSIG
2018/02/24 19:30 VVPB 241930Z VRB02KT 3500 BR SCT010 SCT017 20/20 Q1016 NOSIG

Powered by MinhViet JSC.